Time;durP1;ratioP1;P1;durP2;ratioP2;P2;SDS_P1;SDS_P2;PMS_P1;PMS_P2;Temp;Humidity;BMP_temperature;BMP_pressure;BME280_temperature;BME280_humidity;BME280_pressure;Samples;Min_cycle;Max_cycle;Signal;HPM_P1;HPM_P2
2023/07/30 00:00:53;;;;;;;6.43;2.83;;;;;;;19.88;100.00;99182.19;12191770;19;20415;-81
2023/07/30 00:04:55;;;;;;;8.80;2.67;;;;;;;19.75;100.00;99185.94;12211874;19;20489;-81
2023/07/30 00:08:57;;;;;;;4.10;2.60;;;;;;;19.68;100.00;99188.41;12211493;19;20031;-81
2023/07/30 00:12:59;;;;;;;8.07;2.30;;;;;;;19.58;100.00;99193.13;12196506;19;20010;-82
2023/07/30 00:17:01;;;;;;;5.35;2.38;;;;;;;19.52;100.00;99199.19;12210334;19;20039;-81
2023/07/30 00:21:03;;;;;;;5.50;2.53;;;;;;;19.51;100.00;99183.56;12210720;19;20018;-81
2023/07/30 00:25:05;;;;;;;5.07;2.80;;;;;;;19.51;100.00;99186.34;12187767;19;20081;-81
2023/07/30 00:29:07;;;;;;;7.70;2.10;;;;;;;19.49;100.00;99195.06;12213154;19;20525;-82
2023/07/30 00:33:09;;;;;;;3.10;1.70;;;;;;;19.47;100.00;99188.97;12212678;19;20403;-81
2023/07/30 00:37:10;;;;;;;4.55;2.28;;;;;;;19.45;100.00;99199.63;12187502;19;20010;-81
2023/07/30 00:41:12;;;;;;;3.65;1.90;;;;;;;19.45;100.00;99202.44;12208396;19;20014;-81
2023/07/30 00:45:15;;;;;;;4.57;1.70;;;;;;;19.44;100.00;99211.97;12211880;19;20042;-81
2023/07/30 00:49:17;;;;;;;3.53;2.10;;;;;;;19.41;100.00;99221.00;12190543;19;20318;-81
2023/07/30 00:53:21;;;;;;;;;;;;;;;19.35;100.00;99225.09;12206924;19;20346;-81
2023/07/30 00:57:23;;;;;;;4.07;2.30;;;;;;;19.32;100.00;99223.75;12209057;19;19911;-81
2023/07/30 01:01:25;;;;;;;4.23;2.23;;;;;;;19.27;100.00;99226.69;12186925;19;20007;-82
2023/07/30 01:05:27;;;;;;;4.07;2.80;;;;;;;19.23;100.00;99222.91;12207775;19;20018;-82
2023/07/30 01:09:29;;;;;;;6.97;3.20;;;;;;;19.20;100.00;99242.28;12207131;19;20016;-82
2023/07/30 01:13:33;;;;;;;8.80;2.90;;;;;;;19.12;100.00;99252.25;12188520;19;20821;-81
2023/07/30 01:17:35;;;;;;;7.97;3.13;;;;;;;19.07;100.00;99253.22;12204654;19;20007;-82
2023/07/30 01:21:37;;;;;;;5.47;3.25;;;;;;;19.01;100.00;99257.28;12204609;19;20022;-82
2023/07/30 01:25:40;;;;;;;7.70;2.90;;;;;;;18.99;100.00;99254.00;12179703;19;20014;-82
2023/07/30 01:29:51;;;;;;;11.38;3.45;;;;;;;19.01;100.00;99268.47;12197022;19;20018;-83
2023/07/30 01:33:55;;;;;;;6.95;2.83;;;;;;;19.01;100.00;99279.63;12183749;19;20014;-83
2023/07/30 01:37:58;;;;;;;3.90;2.67;;;;;;;18.99;100.00;99265.16;12207899;19;20089;-82
2023/07/30 01:42:00;;;;;;;5.03;2.55;;;;;;;18.98;100.00;99274.69;12204128;19;20537;-82
2023/07/30 01:46:02;;;;;;;3.43;2.13;;;;;;;18.98;100.00;99273.88;12183781;19;20006;-84
2023/07/30 01:50:04;;;;;;;5.03;2.72;;;;;;;18.93;100.00;99280.38;12205053;19;20027;-86
2023/07/30 01:54:05;;;;;;;3.13;2.00;;;;;;;18.88;100.00;99280.50;12204436;19;20014;-86
2023/07/30 01:58:07;;;;;;;5.65;2.58;;;;;;;18.83;100.00;99283.44;12184930;19;20571;-84
2023/07/30 02:02:09;;;;;;;5.57;2.65;;;;;;;18.75;100.00;99290.59;12208381;19;20017;-84
2023/07/30 02:06:11;;;;;;;3.60;2.03;;;;;;;18.69;100.00;99289.06;12209574;19;20007;-85
2023/07/30 02:10:13;;;;;;;2.90;1.88;;;;;;;18.66;100.00;99287.72;12182309;19;20014;-84
2023/07/30 02:14:15;;;;;;;4.35;1.98;;;;;;;18.63;100.00;99284.75;12212156;19;20017;-84
2023/07/30 02:18:17;;;;;;;3.58;2.22;;;;;;;18.55;100.00;99288.28;12214823;19;20007;-84
2023/07/30 02:22:19;;;;;;;2.90;1.70;;;;;;;18.52;100.00;99294.50;12198827;19;20025;-84
2023/07/30 02:26:20;;;;;;;6.13;2.42;;;;;;;18.53;100.00;99291.41;12214449;19;20025;-84
2023/07/30 02:30:22;;;;;;;3.67;1.98;;;;;;;18.50;100.00;99297.63;12224546;19;20003;-85
2023/07/30 02:34:24;;;;;;;3.15;1.75;;;;;;;18.53;100.00;99307.28;12216495;19;20017;-84
2023/07/30 02:38:25;;;;;;;3.75;1.98;;;;;;;18.52;100.00;99295.31;12221838;19;20113;-85
2023/07/30 02:42:27;;;;;;;4.57;2.00;;;;;;;18.55;100.00;99305.03;12216438;19;20022;-85
2023/07/30 02:46:29;;;;;;;4.53;2.20;;;;;;;18.56;100.00;99312.25;12194425;19;20599;-85
2023/07/30 02:50:31;;;;;;;4.60;2.33;;;;;;;18.56;100.00;99306.66;12218285;19;20010;-85
2023/07/30 02:54:32;;;;;;;6.28;2.22;;;;;;;18.55;100.00;99305.84;12222911;19;20022;-84
2023/07/30 02:58:34;;;;;;;4.30;1.60;;;;;;;18.59;100.00;99306.88;12196462;19;20018;-85
2023/07/30 03:02:36;;;;;;;2.80;1.80;;;;;;;18.61;100.00;99310.16;12215331;19;20018;-84
2023/07/30 03:06:38;;;;;;;4.88;1.88;;;;;;;18.60;100.00;99314.09;12217525;19;20003;-84
2023/07/30 03:10:40;;;;;;;3.77;2.13;;;;;;;18.61;100.00;99314.91;12192046;19;20014;-85
2023/07/30 03:14:42;;;;;;;2.80;1.57;;;;;;;18.62;100.00;99319.34;12218480;19;20026;-84
2023/07/30 03:18:44;;;;;;;3.90;1.98;;;;;;;18.61;100.00;99320.50;12215557;19;20419;-84
2023/07/30 03:22:46;;;;;;;4.13;2.20;;;;;;;18.61;100.00;99342.81;12193866;19;20416;-84
2023/07/30 03:26:47;;;;;;;7.47;2.33;;;;;;;18.62;100.00;99355.63;12212690;19;20089;-84
2023/07/30 03:30:49;;;;;;;4.43;1.70;;;;;;;18.60;100.00;99333.63;12195120;19;20003;-84
2023/07/30 03:34:51;;;;;;;4.00;2.15;;;;;;;18.59;100.00;99323.63;12214331;19;20007;-84
2023/07/30 03:38:54;;;;;;;3.53;1.88;;;;;;;18.59;100.00;99308.81;12214370;19;20011;-84
2023/07/30 03:42:56;;;;;;;3.05;1.95;;;;;;;18.56;100.00;99301.06;12190726;19;20074;-84
2023/07/30 03:46:58;;;;;;;6.03;2.10;;;;;;;18.54;100.00;99315.34;12215491;19;20027;-84
2023/07/30 03:51:00;;;;;;;4.97;2.25;;;;;;;18.53;100.00;99310.94;12215192;19;20010;-84
2023/07/30 03:55:01;;;;;;;4.67;2.37;;;;;;;18.52;100.00;99316.81;12192312;19;20025;-84
2023/07/30 03:59:03;;;;;;;4.05;2.25;;;;;;;18.47;100.00;99325.28;12214666;19;20007;-84
2023/07/30 04:03:05;;;;;;;5.88;2.05;;;;;;;18.44;100.00;99322.00;12211846;19;20015;-83
2023/07/30 04:07:07;;;;;;;4.37;2.23;;;;;;;18.42;100.00;99329.03;12191089;19;20016;-84
2023/07/30 04:11:09;;;;;;;6.82;2.60;;;;;;;18.41;100.00;99327.38;12212264;19;20039;-84
2023/07/30 04:15:11;;;;;;;5.18;2.50;;;;;;;18.44;100.00;99332.31;12213388;19;20014;-83
2023/07/30 04:19:13;;;;;;;5.22;2.30;;;;;;;18.48;100.00;99336.16;12188518;19;20493;-83
2023/07/30 04:23:15;;;;;;;3.58;2.30;;;;;;;18.53;100.00;99344.41;12209839;19;20010;-83
2023/07/30 04:27:17;;;;;;;4.78;2.53;;;;;;;18.56;100.00;99335.41;12213177;19;20019;-82
2023/07/30 04:31:19;;;;;;;4.28;2.22;;;;;;;18.59;100.00;99350.66;12190142;19;20014;-83
2023/07/30 04:35:21;;;;;;;4.47;2.78;;;;;;;18.59;100.00;99368.25;12211451;19;20006;-84
2023/07/30 04:39:23;;;;;;;4.40;2.45;;;;;;;18.64;100.00;99361.72;12209264;19;20382;-84
2023/07/30 04:43:25;;;;;;;3.73;2.33;;;;;;;18.67;100.00;99363.88;12188202;19;20034;-83
2023/07/30 04:47:31;;;;;;;4.72;2.22;;;;;;;18.70;100.00;99362.44;12210004;19;20061;-83
2023/07/30 04:51:33;;;;;;;5.47;2.73;;;;;;;18.71;100.00;99364.94;12211974;19;20042;-84
2023/07/30 04:55:34;;;;;;;4.38;2.83;;;;;;;18.73;100.00;99353.44;12187792;19;20011;-83
2023/07/30 04:59:36;;;;;;;5.68;3.10;;;;;;;18.77;100.00;99363.69;12212102;19;20477;-84
2023/07/30 05:03:38;;;;;;;6.55;3.83;;;;;;;18.80;100.00;99351.91;12212192;19;20011;-84
2023/07/30 05:07:40;;;;;;;7.07;3.20;;;;;;;18.91;100.00;99363.63;12195237;19;20007;-82
2023/07/30 05:11:41;;;;;;;5.32;3.25;;;;;;;18.96;100.00;99362.69;12210792;19;20018;-81
2023/07/30 05:15:43;;;;;;;6.68;3.05;;;;;;;19.05;100.00;99364.41;12215912;19;20007;-84
2023/07/30 05:19:45;;;;;;;6.18;2.97;;;;;;;19.12;100.00;99353.59;12190665;19;20011;-83
2023/07/30 05:23:47;;;;;;;3.95;2.60;;;;;;;19.22;100.00;99352.53;12212474;19;20066;-83
2023/07/30 05:27:48;;;;;;;4.45;2.63;;;;;;;19.32;100.00;99345.84;12194373;19;20014;-83
2023/07/30 05:31:50;;;;;;;5.10;2.95;;;;;;;19.34;100.00;99341.59;12211305;19;20094;-83
2023/07/30 05:35:52;;;;;;;4.25;2.67;;;;;;;19.33;100.00;99337.16;12214773;19;20031;-82
2023/07/30 05:39:54;;;;;;;4.03;2.40;;;;;;;19.26;100.00;99336.78;12188337;19;20050;-83
2023/07/30 05:43:55;;;;;;;5.78;2.85;;;;;;;19.11;100.00;99335.19;12211990;19;20023;-83
2023/07/30 05:47:57;;;;;;;6.05;2.92;;;;;;;19.01;100.00;99332.69;12212362;19;20015;-83
2023/07/30 05:51:59;;;;;;;5.87;2.33;;;;;;;18.99;100.00;99336.94;12189849;19;20014;-83
2023/07/30 05:56:01;;;;;;;5.05;3.20;;;;;;;18.97;100.00;99342.81;12212960;19;20506;-83
2023/07/30 06:00:03;;;;;;;7.65;3.33;;;;;;;19.04;100.00;99345.19;12210473;19;20021;-83
2023/07/30 06:04:12;;;;;;;4.55;2.78;;;;;;;19.31;100.00;99349.81;12191633;19;20045;-82
2023/07/30 06:08:14;;;;;;;3.92;2.58;;;;;;;19.47;100.00;99339.84;12210495;19;20006;-83
2023/07/30 06:12:16;;;;;;;5.35;2.22;;;;;;;19.43;100.00;99347.25;12210406;19;20010;-82
2023/07/30 06:16:19;;;;;;;4.88;2.33;;;;;;;19.48;100.00;99346.25;12190912;19;20014;-82
2023/07/30 06:20:21;;;;;;;3.78;2.08;;;;;;;19.67;100.00;99369.25;12209982;19;20014;-82
2023/07/30 06:24:23;;;;;;;5.07;2.13;;;;;;;19.90;100.00;99363.59;12214693;19;20011;-83
2023/07/30 06:28:24;;;;;;;7.78;2.60;;;;;;;20.14;100.00;99360.41;12205516;19;20047;-82
2023/07/30 06:32:26;;;;;;;4.40;2.88;;;;;;;20.53;100.00;99351.16;12246141;19;20011;-82
2023/07/30 06:36:28;;;;;;;5.28;2.38;;;;;;;20.91;100.00;99342.94;12248317;19;20010;-81
2023/07/30 06:40:30;;;;;;;4.25;2.20;;;;;;;21.23;100.00;99346.34;12226235;19;20010;-81
2023/07/30 06:44:32;;;;;;;4.18;2.30;;;;;;;21.33;100.00;99350.78;12223603;19;20033;-83
2023/07/30 06:48:34;;;;;;;3.53;2.05;;;;;;;21.34;100.00;99353.25;12212739;19;20015;-82
2023/07/30 06:52:36;;;;;;;4.97;2.77;;;;;;;21.44;100.00;99362.47;12187030;19;20014;-82
2023/07/30 06:56:38;;;;;;;3.75;2.53;;;;;;;21.69;100.00;99363.59;12208867;19;20014;-84
2023/07/30 07:00:39;;;;;;;5.03;2.42;;;;;;;21.79;100.00;99364.03;12207386;19;20010;-81
2023/07/30 07:04:44;;;;;;;4.20;2.65;;;;;;;21.73;100.00;99361.75;12185143;19;20015;-81
2023/07/30 07:08:46;;;;;;;3.90;2.57;;;;;;;21.78;100.00;99362.38;12209108;19;20010;-82
2023/07/30 07:12:48;;;;;;;5.47;2.67;;;;;;;21.91;100.00;99374.53;12187640;19;20347;-80
2023/07/30 07:16:50;;;;;;;4.40;2.60;;;;;;;22.10;100.00;99378.91;12209570;19;20024;-81
2023/07/30 07:20:52;;;;;;;4.47;2.77;;;;;;;22.46;100.00;99386.88;12218515;19;20011;-84
2023/07/30 07:24:53;;;;;;;3.70;2.70;;;;;;;22.32;100.00;99409.56;12195895;19;20006;-82
2023/07/30 07:28:56;;;;;;;5.00;3.07;;;;;;;21.82;100.00;99405.44;12219832;19;20022;-83
2023/07/30 07:32:58;;;;;;;9.13;3.80;;;;;;;21.33;100.00;99399.25;12216503;19;20371;-84
2023/07/30 07:37:02;;;;;;;5.43;3.75;;;;;;;20.83;100.00;99405.34;12209351;19;20014;-84
2023/07/30 07:41:03;;;;;;;4.30;2.70;;;;;;;20.13;100.00;99428.69;12215183;19;20081;-88
2023/07/30 07:45:06;;;;;;;35.53;6.50;;;;;;;19.57;100.00;99437.41;12227934;19;20698;-85
2023/07/30 07:49:09;;;;;;;12.57;4.15;;;;;;;18.96;100.00;99427.72;12200959;19;20438;-83
2023/07/30 07:53:10;;;;;;;6.77;3.23;;;;;;;18.58;100.00;99427.16;12224799;19;20017;-84
2023/07/30 07:57:12;;;;;;;6.30;3.55;;;;;;;18.63;100.00;99415.91;12219269;19;20748;-85
2023/07/30 08:01:14;;;;;;;5.03;2.50;;;;;;;18.70;100.00;99402.31;12183123;19;20019;-83
2023/07/30 08:05:16;;;;;;;6.97;2.78;;;;;;;18.76;100.00;99405.88;12221604;19;20013;-83
2023/07/30 08:09:18;;;;;;;4.97;2.63;;;;;;;18.81;100.00;99400.16;12226933;19;20521;-83
2023/07/30 08:13:22;;;;;;;6.10;2.50;;;;;;;18.85;100.00;99403.97;12209951;19;20007;-86
2023/07/30 08:17:34;;;;;;;3.95;2.38;;;;;;;19.10;100.00;99389.41;12230570;19;20047;-85
2023/07/30 08:21:36;;;;;;;6.18;2.13;;;;;;;19.33;100.00;99386.59;12231033;19;20311;-85
2023/07/30 08:25:38;;;;;;;6.25;2.58;;;;;;;19.55;100.00;99392.19;12205720;19;20023;-86
2023/07/30 08:29:40;;;;;;;4.18;2.00;;;;;;;19.84;100.00;99388.09;12225184;19;20007;-85
2023/07/30 08:33:42;;;;;;;3.50;2.10;;;;;;;20.26;100.00;99386.59;12230148;19;20015;-84
2023/07/30 08:37:44;;;;;;;3.55;2.53;;;;;;;20.72;100.00;99387.22;12204699;19;20716;-85
2023/07/30 08:41:46;;;;;;;3.55;2.20;;;;;;;21.06;100.00;99386.41;12219246;19;20017;-85
2023/07/30 08:45:48;;;;;;;3.13;2.10;;;;;;;21.30;100.00;99385.91;12202141;19;20018;-86
2023/07/30 08:49:50;;;;;;;3.17;2.15;;;;;;;21.48;100.00;99380.31;12211927;19;20018;-84
2023/07/30 08:53:52;;;;;;;4.47;2.17;;;;;;;21.60;100.00;99377.63;12215891;19;20023;-84
2023/07/30 08:57:54;;;;;;;3.60;2.43;;;;;;;21.73;100.00;99370.16;12192709;19;20003;-83
2023/07/30 09:01:58;;;;;;;3.67;2.65;;;;;;;21.94;100.00;99373.06;12215239;19;20015;-82
2023/07/30 09:06:00;;;;;;;4.25;3.13;;;;;;;21.99;100.00;99372.88;12213780;19;20007;-81
2023/07/30 09:10:02;;;;;;;4.57;3.33;;;;;;;22.05;100.00;99368.72;12183634;19;20015;-82
2023/07/30 09:14:05;;;;;;;;;;;;;;;22.09;100.00;99369.69;12215163;19;20358;-84
2023/07/30 09:18:08;;;;;;;7.53;3.17;;;;;;;22.12;100.00;99369.00;12213078;19;19915;-83
2023/07/30 09:22:10;;;;;;;5.77;2.90;;;;;;;21.94;100.00;99382.28;12191617;19;20476;-81
2023/07/30 09:26:13;;;;;;;4.97;2.53;;;;;;;21.76;100.00;99394.72;12212159;19;20031;-83
2023/07/30 09:30:21;;;;;;;;;;;;;;;21.65;100.00;99399.84;12216837;19;20011;-83
2023/07/30 09:34:32;;;;;;;7.53;3.30;;;;;;;21.50;100.00;99406.00;12192078;19;19966;-82
2023/07/30 09:38:39;;;;;;;3.63;2.80;;;;;;;21.05;100.00;99445.56;12240794;19;20014;-82
2023/07/30 09:42:46;;;;;;;0.95;0.75;;;;;;;20.35;100.00;99461.38;12217983;19;20023;-80
2023/07/30 09:46:51;;;;;;;1.17;0.50;;;;;;;19.91;100.00;99480.72;12199393;19;20015;-79
2023/07/30 09:50:54;;;;;;;1.08;0.50;;;;;;;19.91;100.00;99485.50;12217635;19;20070;-80
2023/07/30 09:54:57;;;;;;;;;;;;;;;19.74;100.00;99480.63;12194008;19;20018;-80
2023/07/30 09:58:59;;;;;;;;;;;;;;;19.90;100.00;99489.41;12215379;19;20084;-80
2023/07/30 10:03:01;;;;;;;1.00;0.50;;;;;;;20.42;100.00;99490.50;12211302;19;19918;-81
2023/07/30 10:07:08;;;;;;;1.23;0.63;;;;;;;20.43;100.00;99503.34;12192084;19;20017;-81
2023/07/30 10:11:11;;;;;;;0.93;0.55;;;;;;;20.55;100.00;99513.13;12209465;19;20010;-82
2023/07/30 10:15:13;;;;;;;0.40;0.32;;;;;;;20.72;100.00;99518.81;12215314;19;20011;-83
2023/07/30 10:19:16;;;;;;;0.50;0.40;;;;;;;20.89;100.00;99518.03;12186146;19;20024;-82
2023/07/30 10:23:18;;;;;;;;;;;;;;;21.00;100.00;99504.53;12209541;19;20046;-82
2023/07/30 10:27:24;;;;;;;0.93;0.52;;;;;;;21.17;100.00;99512.97;12221494;19;19911;-81
2023/07/30 10:31:38;;;;;;;1.40;0.60;;;;;;;21.33;100.00;99530.97;12188937;19;20010;-85
2023/07/30 10:35:48;;;;;;;0.82;0.52;;;;;;;21.50;100.00;99534.94;12213470;19;20018;-83
2023/07/30 10:39:50;;;;;;;2.67;0.50;;;;;;;21.62;100.00;99537.91;12188258;19;20366;-81
2023/07/30 10:43:53;;;;;;;2.85;0.90;;;;;;;21.39;94.98;99538.09;12211296;19;20002;-85
2023/07/30 10:48:04;;;;;;;2.90;1.05;;;;;;;21.07;94.85;99535.72;12214060;19;20015;-83
2023/07/30 10:52:06;;;;;;;1.27;0.60;;;;;;;21.35;89.46;99545.47;12193237;19;20010;-85
2023/07/30 10:56:09;;;;;;;1.30;0.63;;;;;;;21.82;81.85;99540.06;12237482;19;20002;-82
2023/07/30 11:00:18;;;;;;;2.30;0.82;;;;;;;22.35;82.60;99543.59;12243193;19;20018;-83
2023/07/30 11:04:23;;;;;;;1.45;0.60;;;;;;;22.72;77.82;99544.78;12223426;19;20007;-83
2023/07/30 11:08:34;;;;;;;2.95;0.85;;;;;;;23.04;69.99;99550.09;12245276;19;20034;-83
2023/07/30 11:12:35;;;;;;;8.45;1.02;;;;;;;23.19;70.61;99539.09;12244922;19;20007;-82
2023/07/30 11:16:39;;;;;;;5.23;1.10;;;;;;;23.05;62.37;99546.94;12223786;19;20015;-79
2023/07/30 11:20:41;;;;;;;4.22;1.13;;;;;;;23.31;61.64;99545.97;12246486;19;20020;-82
2023/07/30 11:24:43;;;;;;;3.38;1.20;;;;;;;23.59;59.37;99557.50;12236459;19;20014;-82
2023/07/30 11:28:46;;;;;;;5.88;1.17;;;;;;;23.78;60.28;99571.94;12207769;19;20082;-80
2023/07/30 11:32:48;;;;;;;6.35;1.23;;;;;;;24.00;54.33;99567.91;12224863;19;20018;-81
2023/07/30 11:36:50;;;;;;;5.68;1.30;;;;;;;24.19;57.58;99572.22;12202658;19;20014;-82
2023/07/30 11:40:55;;;;;;;2.08;0.80;;;;;;;23.74;57.05;99585.06;12215936;19;20023;-82
2023/07/30 11:45:23;;;;;;;2.08;1.10;;;;;;;23.48;58.57;99573.97;12218177;19;20006;-83
2023/07/30 11:49:24;;;;;;;5.88;1.30;;;;;;;23.09;55.93;99576.03;12200256;19;20067;-81
2023/07/30 11:53:51;;;;;;;4.43;1.20;;;;;;;22.51;58.98;99600.03;12225060;19;20014;-83
2023/07/30 11:57:53;;;;;;;3.50;1.08;;;;;;;21.96;60.54;99623.22;12198667;19;20006;-82
2023/07/30 12:01:55;;;;;;;5.72;1.83;;;;;;;21.60;60.75;99635.56;12221471;19;20014;-81
2023/07/30 12:05:57;;;;;;;3.17;1.20;;;;;;;21.39;59.86;99633.38;12218989;19;20025;-81
2023/07/30 12:10:10;;;;;;;3.33;1.40;;;;;;;21.27;60.67;99638.78;12176655;19;20263;-81
2023/07/30 12:14:12;;;;;;;;;;;;;;;21.55;60.94;99641.31;12213682;19;20071;-81
2023/07/30 12:18:13;;;;;;;5.85;1.15;;;;;;;21.93;57.95;99649.94;12216382;19;19923;-81
2023/07/30 12:22:15;;;;;;;4.70;1.13;;;;;;;22.17;56.41;99643.88;12196284;19;20031;-81
2023/07/30 12:26:17;;;;;;;7.57;1.60;;;;;;;22.23;53.85;99648.16;12216715;19;20010;-80
2023/07/30 12:30:19;;;;;;;4.60;1.33;;;;;;;23.31;48.28;99644.34;12220544;19;20794;-81
2023/07/30 12:34:22;;;;;;;2.63;1.00;;;;;;;23.35;46.66;99648.97;12197314;19;20006;-79
2023/07/30 12:38:24;;;;;;;3.53;1.15;;;;;;;22.89;48.50;99653.44;12219096;19;20335;-81
2023/07/30 12:42:26;;;;;;;4.68;1.20;;;;;;;22.67;49.69;99657.31;12219594;19;20011;-81
2023/07/30 12:46:29;;;;;;;5.22;1.80;;;;;;;22.58;51.14;99658.50;12193643;19;20374;-81
2023/07/30 12:50:31;;;;;;;5.30;1.58;;;;;;;22.51;51.59;99659.81;12216743;19;20038;-79
2023/07/30 12:54:33;;;;;;;5.37;1.43;;;;;;;23.07;50.53;99648.59;12221079;19;20019;-79
2023/07/30 12:58:35;;;;;;;3.53;1.20;;;;;;;23.32;51.61;99665.69;12200652;19;20509;-79
2023/07/30 13:02:37;;;;;;;4.57;1.40;;;;;;;23.48;50.27;99658.31;12218150;19;20014;-79
2023/07/30 13:06:39;;;;;;;3.72;1.30;;;;;;;23.97;48.34;99644.59;12223478;19;20002;-80
2023/07/30 13:10:41;;;;;;;6.47;1.70;;;;;;;24.06;49.89;99648.19;12218806;19;20461;-80
2023/07/30 13:14:43;;;;;;;5.67;1.20;;;;;;;23.77;48.92;99654.69;12211709;19;20011;-80
2023/07/30 13:18:44;;;;;;;2.13;1.10;;;;;;;23.60;49.28;99655.59;12224139;19;20240;-79
2023/07/30 13:22:46;;;;;;;4.50;1.27;;;;;;;23.98;48.51;99651.88;12216267;19;20720;-79
2023/07/30 13:26:48;;;;;;;1.45;0.82;;;;;;;24.93;44.38;99661.41;12194124;19;20007;-79
2023/07/30 13:30:50;;;;;;;4.77;1.33;;;;;;;24.41;43.49;99656.28;12220694;19;19999;-80
2023/07/30 13:34:53;;;;;;;5.68;1.40;;;;;;;24.38;43.39;99637.28;12221953;19;20046;-80
2023/07/30 13:38:54;;;;;;;4.35;1.27;;;;;;;24.77;42.81;99646.31;12220273;19;20010;-79
2023/07/30 13:42:57;;;;;;;2.27;1.00;;;;;;;26.41;39.54;99647.13;12242063;19;20010;-79
2023/07/30 13:46:58;;;;;;;;;;;;;;;28.49;35.10;99650.22;12247123;19;20026;-80
2023/07/30 13:51:00;;;;;;;2.90;1.20;;;;;;;28.05;35.90;99640.00;12216585;19;19914;-79
2023/07/30 13:55:03;;;;;;;;;;;;;;;26.57;36.94;99659.31;12252445;19;20255;-79
2023/07/30 13:59:05;;;;;;;4.83;1.57;;;;;;;25.75;40.06;99642.72;12243589;19;19922;-79
2023/07/30 14:03:07;;;;;;;4.72;1.40;;;;;;;25.63;40.15;99660.50;12233900;19;20374;-79
2023/07/30 14:07:11;;;;;;;4.57;1.40;;;;;;;25.00;40.51;99655.19;12235294;19;20006;-79
2023/07/30 14:11:13;;;;;;;3.42;1.10;;;;;;;24.51;41.06;99655.91;12218142;19;20014;-79
2023/07/30 14:15:16;;;;;;;4.70;1.58;;;;;;;24.36;41.34;99647.22;12232059;19;20508;-79
2023/07/30 14:19:18;;;;;;;4.05;1.33;;;;;;;24.47;41.96;99648.47;12230787;19;20062;-79
2023/07/30 14:23:20;;;;;;;2.58;1.10;;;;;;;24.40;42.03;99651.84;12202497;19;20002;-79
2023/07/30 14:27:24;;;;;;;3.33;1.23;;;;;;;24.39;41.81;99664.28;12229842;19;20022;-79
2023/07/30 14:31:26;;;;;;;4.03;1.00;;;;;;;25.21;41.24;99647.47;12242407;19;20364;-80
2023/07/30 14:35:29;;;;;;;;;;;;;;;25.64;39.87;99643.22;12224672;19;20003;-79
2023/07/30 14:39:30;;;;;;;5.72;1.08;;;;;;;25.39;39.84;99650.88;12230089;19;20250;-80
2023/07/30 14:43:32;;;;;;;4.32;1.45;;;;;;;25.16;39.87;99652.50;12233099;19;20017;-79
2023/07/30 14:47:34;;;;;;;7.97;1.60;;;;;;;24.88;40.80;99647.53;12213534;19;20014;-79
2023/07/30 14:51:36;;;;;;;4.18;1.23;;;;;;;24.62;41.06;99647.00;12235346;19;20633;-80
2023/07/30 14:55:38;;;;;;;5.22;1.65;;;;;;;24.27;42.07;99639.72;12227380;19;20021;-79
2023/07/30 14:59:40;;;;;;;5.07;1.45;;;;;;;23.88;42.66;99638.22;12206497;19;20006;-78
2023/07/30 15:03:42;;;;;;;2.78;0.93;;;;;;;23.42;44.21;99637.19;12231856;19;20003;-79
2023/07/30 15:07:43;;;;;;;6.55;1.20;;;;;;;23.34;44.09;99643.69;12233824;19;20623;-79
2023/07/30 15:11:45;;;;;;;4.83;1.43;;;;;;;23.19;45.12;99643.09;12206162;19;20032;-79
2023/07/30 15:15:47;;;;;;;4.50;1.40;;;;;;;23.57;43.51;99628.16;12230424;19;20018;-79
2023/07/30 15:19:50;;;;;;;6.00;1.48;;;;;;;24.14;43.21;99635.19;12226212;19;20031;-78
2023/07/30 15:23:52;;;;;;;4.78;1.20;;;;;;;23.89;41.67;99645.50;12200486;19;20027;-80
2023/07/30 15:27:54;;;;;;;3.87;1.60;;;;;;;23.73;42.65;99642.47;12227442;19;20006;-78
2023/07/30 15:31:57;;;;;;;5.35;1.48;;;;;;;23.62;43.19;99638.41;12226119;19;20031;-78
2023/07/30 15:35:58;;;;;;;4.65;1.33;;;;;;;23.31;43.69;99630.31;12203877;19;20096;-79
2023/07/30 15:40:00;;;;;;;5.50;1.37;;;;;;;23.66;43.30;99636.53;12227873;19;20020;-79
2023/07/30 15:44:05;;;;;;;4.43;1.50;;;;;;;24.29;40.51;99633.72;12225926;19;20038;-79
2023/07/30 15:48:07;;;;;;;6.13;1.63;;;;;;;24.75;40.65;99637.41;12209213;19;20010;-78
2023/07/30 15:52:09;;;;;;;4.28;1.35;;;;;;;25.00;39.78;99625.00;12225547;19;20023;-82
2023/07/30 15:56:11;;;;;;;5.27;1.30;;;;;;;24.54;40.29;99624.22;12218639;19;20010;-77
2023/07/30 16:00:15;;;;;;;6.57;1.52;;;;;;;24.27;41.26;99627.59;12195318;19;20352;-78
2023/07/30 16:04:18;;;;;;;5.63;1.58;;;;;;;24.16;41.09;99629.22;12232708;19;20459;-78
2023/07/30 16:08:20;;;;;;;6.07;1.47;;;;;;;24.23;41.76;99621.84;12230366;19;20038;-79
2023/07/30 16:12:22;;;;;;;7.67;1.73;;;;;;;24.25;42.65;99613.88;12250817;19;20011;-80
2023/07/30 16:16:25;;;;;;;7.72;2.08;;;;;;;24.00;42.48;99617.75;12248113;19;20007;-81
2023/07/30 16:20:27;;;;;;;6.10;1.50;;;;;;;23.71;43.51;99625.13;12206829;19;20405;-79
2023/07/30 16:24:28;;;;;;;3.45;0.90;;;;;;;23.57;44.09;99616.91;12220802;19;20450;-82
2023/07/30 16:28:30;;;;;;;3.47;1.03;;;;;;;23.44;43.95;99623.63;12224077;19;20014;-79
2023/07/30 16:32:32;;;;;;;5.05;1.38;;;;;;;23.31;43.68;99624.69;12200277;19;19992;-80
2023/07/30 16:36:34;;;;;;;5.60;1.37;;;;;;;23.14;43.58;99632.06;12222909;19;20018;-81
2023/07/30 16:40:36;;;;;;;7.38;1.38;;;;;;;22.98;44.05;99622.53;12218156;19;20011;-80
2023/07/30 16:44:38;;;;;;;4.50;1.83;;;;;;;22.91;44.40;99622.22;12197687;19;20116;-79
2023/07/30 16:48:40;;;;;;;8.32;1.40;;;;;;;22.56;44.16;99629.94;12221524;19;20421;-80
2023/07/30 16:52:42;;;;;;;5.60;1.30;;;;;;;22.29;45.41;99629.97;12220899;19;20762;-83
2023/07/30 16:56:44;;;;;;;4.23;1.27;;;;;;;22.36;45.38;99639.88;12198987;19;20010;-80
2023/07/30 17:00:46;;;;;;;5.90;1.23;;;;;;;22.38;44.72;99643.19;12222144;19;20035;-81
2023/07/30 17:04:48;;;;;;;2.53;1.27;;;;;;;22.26;44.97;99641.88;12224016;19;20041;-82
2023/07/30 17:08:50;;;;;;;4.97;1.17;;;;;;;22.11;45.56;99628.31;12199474;19;20007;-83
2023/07/30 17:12:52;;;;;;;4.53;1.27;;;;;;;22.05;46.42;99640.88;12217358;19;20027;-83
2023/07/30 17:16:53;;;;;;;6.05;1.30;;;;;;;22.07;46.42;99633.78;12213908;19;20006;-81
2023/07/30 17:20:57;;;;;;;5.00;1.25;;;;;;;22.11;47.01;99635.91;12195451;19;20007;-82
2023/07/30 17:25:03;;;;;;;8.25;1.90;;;;;;;22.11;47.38;99645.16;12219677;19;20603;-82
2023/07/30 17:29:05;;;;;;;5.32;1.42;;;;;;;22.05;46.62;99641.69;12215763;19;20019;-81
2023/07/30 17:33:06;;;;;;;3.47;1.20;;;;;;;21.93;46.92;99643.50;12189467;19;20060;-81
2023/07/30 17:37:08;;;;;;;7.93;1.40;;;;;;;21.86;47.83;99643.97;12212021;19;20007;-82
2023/07/30 17:41:10;;;;;;;3.80;1.10;;;;;;;21.84;48.54;99646.31;12209106;19;20098;-82
2023/07/30 17:45:12;;;;;;;3.07;1.17;;;;;;;21.81;48.66;99645.00;12189384;19;20011;-81
2023/07/30 17:49:14;;;;;;;6.47;1.27;;;;;;;21.78;48.10;99648.47;12214006;19;20917;-81
2023/07/30 17:53:16;;;;;;;7.77;1.23;;;;;;;21.78;48.94;99650.44;12191485;19;20470;-82
2023/07/30 17:57:17;;;;;;;3.55;1.13;;;;;;;21.68;48.82;99647.94;12213532;19;20006;-82
2023/07/30 18:01:19;;;;;;;5.73;1.33;;;;;;;21.58;49.26;99658.31;12211402;19;20014;-82
2023/07/30 18:05:21;;;;;;;6.47;1.50;;;;;;;21.52;49.48;99654.03;12191399;19;20023;-82
2023/07/30 18:09:38;;;;;;;4.88;1.13;;;;;;;21.42;49.77;99650.69;12217478;19;20010;-82
2023/07/30 18:13:40;;;;;;;5.33;1.27;;;;;;;21.30;49.83;99652.13;12220484;19;20066;-82
2023/07/30 18:17:42;;;;;;;5.53;1.90;;;;;;;21.23;50.74;99653.75;12192841;19;20022;-81
2023/07/30 18:21:44;;;;;;;8.77;1.33;;;;;;;21.16;51.07;99660.66;12219186;19;20131;-81
2023/07/30 18:25:46;;;;;;;5.53;1.60;;;;;;;21.05;51.77;99662.09;12215669;19;20383;-81
2023/07/30 18:29:48;;;;;;;4.10;1.30;;;;;;;20.96;52.19;99666.00;12192704;19;20031;-81
2023/07/30 18:33:50;;;;;;;3.22;1.50;;;;;;;20.80;53.20;99669.22;12212705;19;22159;-81
2023/07/30 18:37:52;;;;;;;8.57;2.50;;;;;;;20.71;53.55;99668.34;12217534;19;20007;-80
2023/07/30 18:41:54;;;;;;;4.93;1.43;;;;;;;20.58;54.46;99660.84;12195282;19;20010;-81